createdAt,value
2018-03-02T00:01:23.710Z,109.15
2018-03-02T00:03:51.274Z,121.28
2018-03-02T00:06:18.830Z,122.60
2018-03-02T00:08:46.343Z,116.72
2018-03-02T00:11:13.887Z,122.55
2018-03-02T00:13:41.548Z,105.85
2018-03-02T00:16:09.849Z,117.35
2018-03-02T00:18:38.165Z,105.53
2018-03-02T00:21:05.695Z,110.22
2018-03-02T00:23:33.226Z,115.53
2018-03-02T00:26:01.556Z,103.90
2018-03-02T00:28:29.065Z,107.20
2018-03-02T00:30:57.357Z,107.55
2018-03-02T00:33:25.653Z,104.68
2018-03-02T00:35:53.215Z,98.37
2018-03-02T00:38:20.738Z,95.18
2018-03-02T00:40:48.318Z,107.87
2018-03-02T00:43:15.837Z,113.10
2018-03-02T00:45:43.352Z,98.35
2018-03-02T00:48:11.672Z,92.35
2018-03-02T00:50:39.207Z,103.70
2018-03-02T00:53:07.492Z,104.22
2018-03-02T00:55:35.156Z,98.53
2018-03-02T00:58:03.438Z,101.65
2018-03-02T01:00:30.964Z,97.20
2018-03-02T01:02:58.597Z,109.10
2018-03-02T01:05:26.115Z,103.10
2018-03-02T01:07:54.403Z,93.57
2018-03-02T01:10:22.701Z,104.87
2018-03-02T01:12:50.220Z,101.18
2018-03-02T01:15:17.752Z,106.50
2018-03-02T01:17:45.290Z,96.55
2018-03-02T01:20:12.808Z,90.22
2018-03-02T01:22:40.324Z,94.90
2018-03-02T01:25:07.872Z,89.78
2018-03-02T01:27:35.446Z,101.12
2018-03-02T01:30:02.965Z,96.47
2018-03-02T01:32:30.514Z,93.07
2018-03-02T01:34:58.032Z,85.32
2018-03-02T01:37:25.545Z,96.05
2018-03-02T01:39:53.178Z,87.93
2018-03-02T01:42:20.696Z,96.50
2018-03-02T01:44:48.976Z,97.50
2018-03-02T01:47:16.508Z,79.05
2018-03-02T01:49:44.025Z,85.70
2018-03-02T01:52:11.551Z,89.80
2018-03-02T01:54:39.103Z,82.95
2018-03-02T01:57:06.621Z,86.25
2018-03-02T01:59:34.134Z,80.25
2018-03-02T02:02:01.770Z,89.47
2018-03-02T02:04:29.291Z,77.65
2018-03-02T02:06:57.576Z,83.93
2018-03-02T02:09:25.892Z,86.37
2018-03-02T02:11:53.405Z,82.75
2018-03-02T02:14:20.926Z,84.00
2018-03-02T02:16:48.476Z,87.00
2018-03-02T02:19:16.054Z,91.00
2018-03-02T02:21:43.574Z,87.03
2018-03-02T02:24:11.981Z,83.90
2018-03-02T02:26:39.505Z,82.05
2018-03-02T02:29:07.020Z,83.72
2018-03-02T02:31:34.562Z,86.90
2018-03-02T02:34:02.083Z,76.90
2018-03-02T02:36:29.609Z,92.45
2018-03-02T02:38:57.140Z,78.55
2018-03-02T02:41:25.431Z,84.07
2018-03-02T02:43:52.956Z,78.65
2018-03-02T02:46:20.503Z,84.60
2018-03-02T02:48:48.024Z,78.55
2018-03-02T02:51:15.540Z,81.10
2018-03-02T02:53:43.185Z,75.97
2018-03-02T02:56:10.701Z,85.25
2018-03-02T02:58:38.987Z,74.75
2018-03-02T03:01:06.527Z,87.22
2018-03-02T03:03:34.050Z,83.47
2018-03-02T03:06:01.561Z,85.18
2018-03-02T03:08:29.981Z,88.25
2018-03-02T03:10:57.508Z,84.47
2018-03-02T03:13:25.794Z,78.87
2018-03-02T03:15:54.085Z,74.85
2018-03-02T03:18:21.659Z,79.15
2018-03-02T03:20:49.178Z,86.10
2018-03-02T03:23:16.724Z,93.97
2018-03-02T03:25:44.237Z,86.82
2018-03-02T03:28:12.521Z,80.05
2018-03-02T03:30:40.073Z,92.25
2018-03-02T03:33:08.371Z,84.93
2018-03-02T03:35:35.881Z,88.18
2018-03-02T03:38:03.437Z,92.95
2018-03-02T03:40:30.966Z,89.78
2018-03-02T03:42:58.486Z,82.05
2018-03-02T03:45:26.021Z,92.07
2018-03-02T03:47:53.528Z,80.75
2018-03-02T03:50:21.804Z,92.93
2018-03-02T03:52:49.384Z,84.85
2018-03-02T03:55:17.670Z,86.97
2018-03-02T03:57:45.977Z,99.95
2018-03-02T04:00:13.493Z,87.22
2018-03-02T04:02:41.032Z,83.05
2018-03-02T04:05:08.572Z,80.25
2018-03-02T04:07:36.111Z,80.38
2018-03-02T04:10:03.662Z,91.03
2018-03-02T04:12:31.961Z,84.95
2018-03-02T04:14:59.501Z,79.85
2018-03-02T04:17:27.806Z,80.68
2018-03-02T04:19:55.348Z,81.15
2018-03-02T04:22:23.648Z,79.15
2018-03-02T04:24:51.218Z,80.12
2018-03-02T04:27:18.757Z,84.75
2018-03-02T04:29:47.042Z,82.12
2018-03-02T04:32:15.316Z,93.68
2018-03-02T04:34:43.628Z,91.85
2018-03-02T04:37:11.169Z,82.85
2018-03-02T04:39:39.452Z,77.85
2018-03-02T04:42:07.756Z,92.43
2018-03-02T04:44:35.276Z,82.30
2018-03-02T04:47:03.572Z,72.90
2018-03-02T04:49:31.875Z,80.95
2018-03-02T04:51:59.391Z,81.07
2018-03-02T04:54:26.913Z,75.37
2018-03-02T04:56:54.445Z,81.28
2018-03-02T04:59:21.972Z,84.82
2018-03-02T05:01:49.482Z,82.10
2018-03-02T05:04:17.024Z,84.50
2018-03-02T05:06:45.305Z,86.12
2018-03-02T05:09:13.619Z,95.60
2018-03-02T05:11:41.149Z,97.93
2018-03-02T05:14:09.427Z,87.80
2018-03-02T05:16:37.751Z,82.65
2018-03-02T05:19:05.287Z,92.72
2018-03-02T05:21:33.588Z,91.53
2018-03-02T05:24:01.120Z,96.43
2018-03-02T05:26:29.400Z,87.97
2018-03-02T05:28:57.803Z,87.78
2018-03-02T05:31:25.336Z,82.22
2018-03-02T05:33:52.849Z,89.68
2018-03-02T05:36:20.395Z,96.90
2018-03-02T05:38:47.913Z,94.00
2018-03-02T05:41:15.448Z,88.43
2018-03-02T05:43:42.994Z,90.55
2018-03-02T05:46:10.523Z,90.28
2018-03-02T05:48:38.822Z,89.25
2018-03-02T05:51:06.369Z,85.30
2018-03-02T05:53:34.658Z,97.15
2018-03-02T05:56:02.956Z,93.05
2018-03-02T05:58:30.465Z,95.70
2018-03-02T06:00:57.979Z,97.82
2018-03-02T06:03:25.526Z,89.70
2018-03-02T06:05:53.825Z,95.72
2018-03-02T06:08:21.361Z,98.87
2018-03-02T06:10:49.658Z,106.25
2018-03-02T06:13:17.185Z,94.03
2018-03-02T06:15:44.704Z,98.75
2018-03-02T06:18:12.260Z,89.85
2018-03-02T06:20:39.796Z,94.10
2018-03-02T06:23:08.098Z,103.30
2018-03-02T06:25:35.660Z,110.25
2018-03-02T06:28:03.189Z,109.22
2018-03-02T06:30:30.747Z,101.93
2018-03-02T06:32:58.321Z,95.15
2018-03-02T06:35:25.861Z,97.55
2018-03-02T06:37:53.417Z,98.28
2018-03-02T06:40:20.986Z,112.18
2018-03-02T06:42:48.518Z,110.15
2018-03-02T06:45:16.060Z,108.72
2018-03-02T06:47:44.387Z,105.03
2018-03-02T06:50:11.929Z,114.78
2018-03-02T06:52:39.731Z,115.05
2018-03-02T06:55:07.835Z,110.72
2018-03-02T06:57:36.125Z,134.50
2018-03-02T07:00:04.437Z,110.20
2018-03-02T07:02:31.962Z,138.00
2018-03-02T07:05:00.326Z,138.95
2018-03-02T07:07:27.895Z,133.70
2018-03-02T07:09:55.447Z,126.65
2018-03-02T07:12:22.970Z,139.77
2018-03-02T07:14:50.533Z,120.70
2018-03-02T07:17:18.073Z,119.72
2018-03-02T07:19:45.629Z,116.15
2018-03-02T07:22:13.959Z,109.45
2018-03-02T07:24:41.489Z,111.10
2018-03-02T07:27:09.778Z,102.93
2018-03-02T07:29:37.314Z,98.53
2018-03-02T07:32:05.638Z,106.82
2018-03-02T07:34:33.156Z,98.78
2018-03-02T07:37:01.578Z,106.03
2018-03-02T07:39:29.089Z,104.50
2018-03-02T07:41:56.618Z,98.60
2018-03-02T07:44:24.286Z,94.40
2018-03-02T07:46:51.889Z,92.20
2018-03-02T07:49:19.408Z,90.47
2018-03-02T07:51:46.964Z,90.05
2018-03-02T07:54:14.505Z,91.40
2018-03-02T07:56:42.044Z,91.30
2018-03-02T07:59:09.633Z,88.55
2018-03-02T08:01:37.219Z,93.68
2018-03-02T08:04:04.766Z,80.35
2018-03-02T08:06:32.394Z,88.72
2018-03-02T08:08:59.996Z,74.30
2018-03-02T08:11:27.551Z,77.03
2018-03-02T08:13:55.130Z,81.40
2018-03-02T08:16:22.760Z,74.97
2018-03-02T08:18:50.290Z,83.95
2018-03-02T08:21:17.861Z,76.75
2018-03-02T08:23:45.393Z,79.03
2018-03-02T08:26:12.944Z,80.85
2018-03-02T08:28:40.510Z,84.28
2018-03-02T08:31:08.038Z,85.15
2018-03-02T08:33:35.594Z,81.55
2018-03-02T08:36:03.279Z,74.72
2018-03-02T08:38:31.629Z,90.18
2018-03-02T08:40:59.172Z,85.73
2018-03-02T08:43:26.765Z,76.63
2018-03-02T08:45:54.408Z,79.93
2018-03-02T08:48:21.962Z,80.33
2018-03-02T08:50:49.544Z,89.10
2018-03-02T08:53:17.097Z,74.70
2018-03-02T08:55:44.686Z,76.50
2018-03-02T08:58:12.435Z,91.30
2018-03-02T09:00:40.003Z,70.83
2018-03-02T09:03:07.582Z,76.50
2018-03-02T09:05:35.235Z,67.80
2018-03-02T09:08:02.765Z,72.17
2018-03-02T09:10:30.323Z,75.57
2018-03-02T09:12:58.810Z,66.17
2018-03-02T09:15:27.161Z,66.40
2018-03-02T09:17:54.841Z,70.20
2018-03-02T09:20:23.199Z,70.80
2018-03-02T09:22:50.824Z,65.20
2018-03-02T09:25:18.455Z,71.70
2018-03-02T09:27:46.794Z,62.83
2018-03-02T09:30:14.361Z,63.67
2018-03-02T09:32:41.933Z,65.77
2018-03-02T09:35:09.613Z,59.27
2018-03-02T09:37:37.149Z,61.10
2018-03-02T09:40:04.684Z,58.53
2018-03-02T09:42:32.321Z,61.93
2018-03-02T09:45:00.636Z,57.73
2018-03-02T09:47:28.188Z,57.70
2018-03-02T09:49:55.945Z,53.83
2018-03-02T09:52:24.275Z,57.20
2018-03-02T09:54:51.821Z,54.00
2018-03-02T09:57:19.485Z,51.90
2018-03-02T09:59:47.011Z,60.03
2018-03-02T10:02:15.399Z,73.47
2018-03-02T10:04:43.997Z,61.40
2018-03-02T10:07:12.312Z,62.47
2018-03-02T10:09:39.832Z,66.53
2018-03-02T10:12:08.262Z,54.53
2018-03-02T10:14:35.819Z,66.27
2018-03-02T10:17:03.369Z,59.23
2018-03-02T10:19:30.939Z,59.00
2018-03-02T10:21:58.507Z,57.20
2018-03-02T10:24:26.073Z,55.13
2018-03-02T10:26:53.633Z,55.03
2018-03-02T10:29:21.173Z,57.83
2018-03-02T10:31:49.472Z,58.80
2018-03-02T10:34:17.039Z,55.87
2018-03-02T10:36:44.573Z,67.60
2018-03-02T10:39:12.893Z,52.83
2018-03-02T10:41:40.447Z,55.67
2018-03-02T10:44:07.992Z,57.57
2018-03-02T10:46:35.546Z,52.10
2018-03-02T10:49:03.876Z,55.50
2018-03-02T10:51:31.422Z,50.43
2018-03-02T10:53:58.995Z,50.47
2018-03-02T10:56:26.555Z,60.30
2018-03-02T10:58:54.159Z,47.27
2018-03-02T11:01:25.686Z,58.67
2018-03-02T11:03:59.042Z,53.63
2018-03-02T11:06:26.619Z,59.40
2018-03-02T11:08:54.164Z,54.60
2018-03-02T11:11:22.529Z,57.43
2018-03-02T11:13:50.184Z,58.43
2018-03-02T11:16:17.726Z,55.77
2018-03-02T11:18:46.040Z,54.37
2018-03-02T11:21:13.601Z,56.17
2018-03-02T11:23:41.138Z,49.27
2018-03-02T11:26:08.667Z,54.10
2018-03-02T11:28:36.492Z,57.50
2018-03-02T11:31:04.036Z,49.33
2018-03-02T11:33:31.577Z,54.67
2018-03-02T11:35:59.138Z,54.53
2018-03-02T11:38:26.674Z,52.43
2018-03-02T11:40:55.040Z,51.50
2018-03-02T11:43:22.606Z,54.93
2018-03-02T11:45:50.194Z,52.57
2018-03-02T11:48:18.498Z,54.53
2018-03-02T11:50:46.833Z,50.17
2018-03-02T11:53:14.368Z,50.87
2018-03-02T11:55:41.931Z,55.53
2018-03-02T11:58:09.521Z,51.70
2018-03-02T12:00:37.867Z,49.33
2018-03-02T12:03:05.441Z,51.80
2018-03-02T12:05:33.111Z,49.67
2018-03-02T12:08:00.672Z,51.00
2018-03-02T12:10:28.312Z,49.90
2018-03-02T12:12:55.868Z,46.67
2018-03-02T12:15:23.447Z,48.43
2018-03-02T12:17:51.089Z,49.67
2018-03-02T12:20:18.630Z,47.53
2018-03-02T12:22:47.010Z,42.47
2018-03-02T12:25:15.350Z,48.57
2018-03-02T12:27:42.948Z,50.87
2018-03-02T12:30:10.503Z,51.17
2018-03-02T12:32:38.033Z,49.83
2018-03-02T12:35:05.594Z,47.97
2018-03-02T12:37:33.136Z,46.80
2018-03-02T12:40:00.689Z,46.63
2018-03-02T12:42:29.024Z,51.93
2018-03-02T12:44:56.879Z,49.30
2018-03-02T12:47:24.520Z,43.00
2018-03-02T12:49:52.201Z,49.63
2018-03-02T12:52:19.754Z,41.70
2018-03-02T12:54:47.344Z,48.27
2018-03-02T12:57:14.914Z,34.47
2018-03-02T12:59:42.445Z,41.20
2018-03-02T13:02:10.010Z,37.57
2018-03-02T13:04:37.751Z,36.60
2018-03-02T13:07:06.069Z,36.37
2018-03-02T13:09:33.732Z,40.13
2018-03-02T13:12:01.298Z,37.77
2018-03-02T13:14:28.984Z,39.27
2018-03-02T13:16:56.537Z,35.60
2018-03-02T13:19:24.119Z,39.03
2018-03-02T13:21:51.662Z,35.53
2018-03-02T13:24:19.219Z,37.67
2018-03-02T13:26:58.769Z,34.10
2018-03-02T13:29:26.309Z,30.13
2018-03-02T13:31:53.866Z,33.33
2018-03-02T13:34:34.115Z,31.07
2018-03-02T13:37:02.414Z,35.57
2018-03-02T13:39:41.821Z,32.33
2018-03-02T13:42:10.245Z,30.23
2018-03-02T13:44:37.821Z,35.97
2018-03-02T13:47:05.397Z,38.07
2018-03-02T13:49:44.907Z,35.20
2018-03-02T13:52:12.634Z,37.03
2018-03-02T13:54:41.009Z,36.73
2018-03-02T13:57:21.220Z,35.17
2018-03-02T13:59:48.757Z,31.00
2018-03-02T14:02:28.191Z,32.87
2018-03-02T14:05:02.582Z,34.50
2018-03-02T14:07:31.050Z,34.10
2018-03-02T14:10:00.282Z,32.30
2018-03-02T14:12:28.772Z,32.00
2018-03-02T14:14:56.363Z,35.10
2018-03-02T14:17:23.924Z,40.43
2018-03-02T14:19:51.614Z,35.47
2018-03-02T14:22:19.228Z,35.07
2018-03-02T14:24:47.574Z,32.37
2018-03-02T14:27:15.160Z,32.50
2018-03-02T14:29:42.733Z,32.50
2018-03-02T14:32:11.069Z,35.63
2018-03-02T14:34:38.733Z,40.13
2018-03-02T14:37:06.313Z,36.97
2018-03-02T14:39:33.900Z,37.80
2018-03-02T14:42:02.351Z,33.87
2018-03-02T14:44:29.913Z,32.13
2018-03-02T14:46:57.533Z,40.17
2018-03-02T14:49:26.187Z,40.93
2018-03-02T14:51:53.728Z,36.03
2018-03-02T14:54:21.441Z,31.40
2018-03-02T14:56:49.820Z,34.00
2018-03-02T14:59:18.181Z,38.23
2018-03-02T15:01:45.734Z,38.47
2018-03-02T15:04:13.381Z,41.07
2018-03-02T15:06:40.912Z,39.10
2018-03-02T15:09:09.200Z,43.13
2018-03-02T15:11:37.527Z,40.17
2018-03-02T15:14:05.074Z,44.83
2018-03-02T15:16:32.646Z,49.70
2018-03-02T15:19:00.218Z,43.23
2018-03-02T15:21:27.755Z,45.37
2018-03-02T15:23:55.287Z,38.80
2018-03-02T15:26:23.781Z,38.77
2018-03-02T15:28:52.131Z,30.67
2018-03-02T15:31:19.686Z,38.60
2018-03-02T15:33:47.317Z,34.40
2018-03-02T15:36:14.900Z,38.57
2018-03-02T15:38:42.603Z,39.30
2018-03-02T15:41:11.002Z,43.13
2018-03-02T15:43:39.626Z,37.77
2018-03-02T15:46:07.489Z,34.93
2018-03-02T15:48:35.935Z,45.73
2018-03-02T15:51:04.696Z,38.57
2018-03-02T15:53:32.332Z,45.43
2018-03-02T15:55:59.874Z,37.63
2018-03-02T15:58:29.093Z,34.23
2018-03-02T16:00:57.913Z,37.07
2018-03-02T16:03:26.660Z,40.37
2018-03-02T16:05:54.230Z,37.77
2018-03-02T16:08:21.921Z,39.27
2018-03-02T16:10:49.709Z,38.30
2018-03-02T16:13:17.476Z,36.80
2018-03-02T16:15:45.115Z,42.13
2018-03-02T16:18:12.818Z,43.30
2018-03-02T16:20:40.423Z,41.47
2018-03-02T16:23:07.978Z,42.37
2018-03-02T16:25:36.347Z,46.27
2018-03-02T16:28:03.984Z,41.50
2018-03-02T16:30:31.561Z,44.97
2018-03-02T16:32:59.319Z,46.77
2018-03-02T16:35:26.875Z,41.03
2018-03-02T16:37:54.424Z,49.17
2018-03-02T16:40:22.101Z,52.27
2018-03-02T16:42:49.733Z,47.30
2018-03-02T16:45:17.329Z,42.07
2018-03-02T16:47:44.894Z,45.33
2018-03-02T16:50:12.505Z,41.77
2018-03-02T16:52:40.905Z,49.40
2018-03-02T16:55:08.489Z,43.00
2018-03-02T16:57:36.172Z,53.63
2018-03-02T17:00:03.702Z,54.97
2018-03-02T17:02:32.025Z,48.17
2018-03-02T17:04:59.571Z,45.70
2018-03-02T17:07:27.217Z,47.87
2018-03-02T17:09:55.082Z,51.27
2018-03-02T17:12:23.410Z,60.60
2018-03-02T17:14:50.942Z,61.57
2018-03-02T17:17:18.530Z,70.17
2018-03-02T17:19:46.128Z,59.37
2018-03-02T17:22:13.665Z,55.40
2018-03-02T17:24:41.339Z,62.27
2018-03-02T17:27:08.875Z,57.90
2018-03-02T17:29:36.444Z,61.77
2018-03-02T17:32:04.064Z,49.97
2018-03-02T17:34:32.376Z,46.90
2018-03-02T17:36:59.930Z,58.47
2018-03-02T17:39:27.609Z,329.20
2018-03-02T17:41:55.159Z,105.90
2018-03-02T17:44:23.456Z,56.97
2018-03-02T17:46:51.040Z,58.47
2018-03-02T17:49:18.590Z,64.90
2018-03-02T17:51:46.145Z,58.53
2018-03-02T17:54:13.799Z,60.13
2018-03-02T17:56:41.362Z,58.00
2018-03-02T17:59:09.679Z,57.20
2018-03-02T18:01:37.280Z,45.30
2018-03-02T18:04:05.606Z,49.07
2018-03-02T18:06:33.222Z,55.50
2018-03-02T18:09:00.868Z,51.13
2018-03-02T18:11:28.404Z,56.00
2018-03-02T18:13:56.158Z,62.27
2018-03-02T18:16:23.892Z,53.33
2018-03-02T18:18:51.450Z,64.73
2018-03-02T18:21:19.007Z,68.87
2018-03-02T18:23:46.664Z,78.03
2018-03-02T18:26:14.362Z,76.77
2018-03-02T18:28:41.918Z,74.37
2018-03-02T18:31:11.556Z,73.30
2018-03-02T18:33:39.247Z,51.03
2018-03-02T18:36:07.167Z,50.23
2018-03-02T18:38:34.719Z,44.13
2018-03-02T18:41:02.282Z,60.33
2018-03-02T18:43:29.862Z,72.37
2018-03-02T18:45:58.174Z,69.77
2018-03-02T18:48:25.740Z,70.20
2018-03-02T18:50:53.329Z,82.10
2018-03-02T18:53:20.874Z,73.57
2018-03-02T18:55:48.517Z,75.27
2018-03-02T18:58:16.898Z,73.10
2018-03-02T19:00:45.317Z,68.73
2018-03-02T19:03:12.907Z,65.63
2018-03-02T19:05:40.473Z,68.23
2018-03-02T19:08:08.020Z,79.67
2018-03-02T19:10:35.682Z,78.97
2018-03-02T19:13:03.459Z,85.47
2018-03-02T19:15:31.037Z,82.70
2018-03-02T19:17:58.584Z,91.37
2018-03-02T19:20:26.305Z,83.57
2018-03-02T19:22:54.626Z,70.00
2018-03-02T19:25:22.218Z,79.87
2018-03-02T19:27:49.850Z,73.13
2018-03-02T19:30:17.648Z,66.77
2018-03-02T19:32:45.341Z,66.67
2018-03-02T19:35:13.883Z,66.53
2018-03-02T19:37:41.583Z,78.40
2018-03-02T19:40:09.379Z,68.53
2018-03-02T19:42:37.101Z,65.37
2018-03-02T19:45:04.794Z,60.00
2018-03-02T19:47:33.317Z,63.93
2018-03-02T19:50:00.987Z,60.87
2018-03-02T19:52:28.761Z,65.57
2018-03-02T19:54:56.407Z,64.70
2018-03-02T19:57:24.372Z,71.80
2018-03-02T19:59:52.074Z,59.40
2018-03-02T20:02:19.895Z,65.57
2018-03-02T20:04:47.583Z,77.10
2018-03-02T20:07:15.235Z,69.33
2018-03-02T20:09:42.854Z,92.67
2018-03-02T20:12:10.465Z,90.40
2018-03-02T20:14:38.098Z,93.93
2018-03-02T20:17:05.951Z,94.20
2018-03-02T20:19:33.630Z,85.60
2018-03-02T20:22:01.180Z,92.67
2018-03-02T20:24:28.737Z,81.60
2018-03-02T20:26:56.324Z,90.50
2018-03-02T20:29:24.724Z,80.07
2018-03-02T20:31:52.294Z,79.80
2018-03-02T20:34:19.956Z,73.30
2018-03-02T20:36:47.545Z,82.53
2018-03-02T20:39:15.959Z,74.60
2018-03-02T20:41:43.570Z,84.60
2018-03-02T20:44:11.175Z,87.23
2018-03-02T20:46:38.768Z,69.60
2018-03-02T20:49:06.485Z,76.13
2018-03-02T20:51:34.853Z,77.33
2018-03-02T20:54:03.205Z,68.70
2018-03-02T20:56:30.780Z,78.57
2018-03-02T20:58:58.440Z,75.50
2018-03-02T21:01:26.056Z,74.73
2018-03-02T21:03:54.420Z,69.03
2018-03-02T21:06:22.776Z,76.40
2018-03-02T21:08:50.389Z,71.63
2018-03-02T21:11:18.747Z,72.53
2018-03-02T21:13:46.443Z,65.00
2018-03-02T21:16:14.043Z,68.63
2018-03-02T21:18:41.660Z,60.73
2018-03-02T21:21:10.163Z,55.90
2018-03-02T21:23:37.717Z,61.57
2018-03-02T21:26:05.275Z,59.67
2018-03-02T21:28:33.655Z,65.40
2018-03-02T21:31:01.976Z,74.73
2018-03-02T21:33:32.443Z,97.37
2018-03-02T21:35:57.141Z,106.13
2018-03-02T21:38:24.717Z,110.30
2018-03-02T21:40:52.280Z,112.87
2018-03-02T21:43:20.036Z,107.50
2018-03-02T21:45:47.691Z,125.53
2018-03-02T21:48:15.321Z,131.67
2018-03-02T21:50:42.883Z,125.83
2018-03-02T21:53:10.445Z,104.27
2018-03-02T21:55:38.038Z,103.40
2018-03-02T21:58:05.620Z,97.20
2018-03-02T22:00:33.161Z,89.87
2018-03-02T22:03:00.770Z,96.83
2018-03-02T22:05:29.155Z,94.63
2018-03-02T22:07:57.459Z,86.10
2018-03-02T22:10:25.021Z,89.43
2018-03-02T22:12:52.625Z,92.70
2018-03-02T22:15:20.163Z,86.43
2018-03-02T22:17:47.809Z,92.23
2018-03-02T22:20:15.519Z,86.75
2018-03-02T22:22:43.106Z,96.63
2018-03-02T22:25:10.748Z,88.50
2018-03-02T22:27:38.335Z,89.35
2018-03-02T22:30:05.876Z,88.30
2018-03-02T22:32:33.431Z,92.78
2018-03-02T22:35:01.027Z,89.62
2018-03-02T22:37:28.570Z,87.82
2018-03-02T22:39:56.104Z,96.75
2018-03-02T22:42:23.747Z,90.85
2018-03-02T22:44:52.074Z,101.53
2018-03-02T22:47:19.668Z,102.57
2018-03-02T22:49:47.220Z,97.10
2018-03-02T22:52:14.756Z,97.68
2018-03-02T22:54:42.299Z,99.07
2018-03-02T22:57:09.851Z,90.28
2018-03-02T22:59:38.168Z,94.28
2018-03-02T23:02:05.783Z,102.97
2018-03-02T23:04:33.392Z,103.70
2018-03-02T23:07:00.953Z,92.15
2018-03-02T23:09:28.510Z,92.00
2018-03-02T23:11:56.053Z,92.12
2018-03-02T23:14:24.370Z,99.65
2018-03-02T23:16:51.913Z,94.93
2018-03-02T23:19:19.512Z,88.35
2018-03-02T23:21:47.045Z,92.70
2018-03-02T23:24:14.645Z,99.22
2018-03-02T23:26:42.208Z,94.68
2018-03-02T23:29:09.744Z,97.30
2018-03-02T23:31:37.302Z,88.78
2018-03-02T23:34:04.989Z,97.45
2018-03-02T23:36:32.510Z,93.40
2018-03-02T23:39:00.815Z,105.25
2018-03-02T23:41:28.361Z,93.60
2018-03-02T23:43:56.678Z,101.87
2018-03-02T23:46:24.207Z,114.90
2018-03-02T23:48:52.538Z,106.30
2018-03-02T23:51:20.152Z,100.72
2018-03-02T23:53:48.453Z,105.37
2018-03-02T23:56:16.013Z,106.90
2018-03-02T23:58:43.584Z,102.03
